createdAt,value
2022-10-03T00:00:02.064Z,100.0
2022-10-03T00:05:32.358Z,100.0
2022-10-03T00:11:04.229Z,100.0
2022-10-03T00:16:35.774Z,100.0
2022-10-03T00:22:13.918Z,100.0
2022-10-03T00:27:45.625Z,100.0
2022-10-03T00:33:17.589Z,100.0
2022-10-03T00:38:49.069Z,100.0
2022-10-03T00:44:20.778Z,100.0
2022-10-03T00:49:52.493Z,100.0
2022-10-03T00:55:24.209Z,100.0
2022-10-03T01:00:56.061Z,100.0
2022-10-03T01:06:27.639Z,100.0
2022-10-03T01:11:59.432Z,100.0
2022-10-03T01:17:31.138Z,100.0
2022-10-03T01:23:09.255Z,100.0
2022-10-03T01:28:41.014Z,100.0
2022-10-03T01:34:12.744Z,100.0
2022-10-03T01:39:44.398Z,100.0
2022-10-03T01:45:16.234Z,100.0
2022-10-03T01:50:47.886Z,100.0
2022-10-03T01:56:19.629Z,100.0
2022-10-03T02:01:51.442Z,100.0
2022-10-03T02:07:23.059Z,100.0
2022-10-03T02:12:54.769Z,100.0
2022-10-03T02:18:26.468Z,100.0
2022-10-03T02:24:02.619Z,100.0
2022-10-03T02:29:34.416Z,100.0
2022-10-03T02:35:06.106Z,100.0
2022-10-03T02:40:37.830Z,100.0
2022-10-03T02:46:09.690Z,100.0
2022-10-03T02:51:42.155Z,100.0
2022-10-03T02:57:13.066Z,100.0
2022-10-03T03:02:44.788Z,100.0
2022-10-03T03:08:16.461Z,100.0
2022-10-03T03:13:48.158Z,100.0
2022-10-03T03:19:19.870Z,100.0
2022-10-03T03:24:55.975Z,100.0
2022-10-03T03:30:27.760Z,100.0
2022-10-03T03:35:59.441Z,100.0
2022-10-03T03:41:31.317Z,100.0
2022-10-03T03:47:02.930Z,100.0
2022-10-03T03:52:34.621Z,100.0
2022-10-03T03:58:06.402Z,100.0
2022-10-03T04:03:38.165Z,100.0
2022-10-03T04:09:09.826Z,100.0
2022-10-03T04:14:41.578Z,100.0
2022-10-03T04:20:13.274Z,100.0
2022-10-03T04:25:49.369Z,100.0
2022-10-03T04:31:21.219Z,100.0
2022-10-03T04:36:52.842Z,100.0
2022-10-03T04:42:24.531Z,100.0
2022-10-03T04:47:56.266Z,100.0
2022-10-03T04:53:28.018Z,100.0
2022-10-03T04:58:59.770Z,100.0
2022-10-03T05:04:31.570Z,100.0
2022-10-03T05:10:11.516Z,100.0
2022-10-03T05:15:34.970Z,100.0
2022-10-03T05:21:06.663Z,100.0
2022-10-03T05:26:46.019Z,100.0
2022-10-03T05:32:14.553Z,100.0
2022-10-03T05:37:46.285Z,100.0
2022-10-03T05:43:17.973Z,100.0
2022-10-03T05:48:49.846Z,100.0
2022-10-03T05:54:21.458Z,100.0
2022-10-03T05:59:53.122Z,100.0
2022-10-03T06:05:24.858Z,100.0
2022-10-03T06:10:56.533Z,100.0
2022-10-03T06:16:28.441Z,100.0
2022-10-03T06:22:00.086Z,100.0
2022-10-03T06:27:38.156Z,100.0
2022-10-03T06:33:09.883Z,100.0
2022-10-03T06:38:41.595Z,100.0
2022-10-03T06:44:13.309Z,100.0
2022-10-03T06:49:45.045Z,100.0
2022-10-03T06:55:16.770Z,100.0
2022-10-03T07:00:48.518Z,100.0
2022-10-03T07:06:20.237Z,100.0
2022-10-03T07:11:51.981Z,100.0
2022-10-03T07:17:23.812Z,100.0
2022-10-03T07:22:55.433Z,100.0
2022-10-03T07:28:31.619Z,100.0
2022-10-03T07:34:03.254Z,100.0
2022-10-03T07:39:35.031Z,100.0
2022-10-03T07:45:06.688Z,100.0
2022-10-03T07:50:38.422Z,100.0
2022-10-03T07:56:10.290Z,100.0
2022-10-03T08:01:42.473Z,100.0
2022-10-03T08:07:13.641Z,100.0
2022-10-03T08:12:45.354Z,100.0
2022-10-03T08:18:17.058Z,100.0
2022-10-03T08:23:48.822Z,100.0
2022-10-03T08:29:26.957Z,100.0
2022-10-03T08:34:58.669Z,100.0
2022-10-03T08:40:30.397Z,100.0
2022-10-03T08:46:02.218Z,100.0
2022-10-03T08:51:34.088Z,100.0
2022-10-03T08:57:05.564Z,100.0
2022-10-03T09:02:37.400Z,100.0
2022-10-03T09:08:09.068Z,100.0
2022-10-03T09:13:40.796Z,100.0
2022-10-03T09:19:12.541Z,100.0
2022-10-03T09:24:44.224Z,100.0
2022-10-03T09:30:22.385Z,100.0
2022-10-03T09:35:54.145Z,100.0
2022-10-03T09:41:25.889Z,100.0
2022-10-03T09:46:57.674Z,100.0
2022-10-03T09:52:29.276Z,100.0
2022-10-03T09:58:01.060Z,100.0
2022-10-03T10:03:32.805Z,100.0
2022-10-03T10:09:04.483Z,100.0
2022-10-03T10:14:36.149Z,100.0
2022-10-03T10:20:07.937Z,100.0
2022-10-03T10:25:39.649Z,100.0
2022-10-03T10:31:15.859Z,100.0
2022-10-03T10:36:47.501Z,100.0
2022-10-03T10:42:19.242Z,100.0
2022-10-03T10:47:50.930Z,100.0
2022-10-03T10:53:22.921Z,100.0
2022-10-03T10:58:54.438Z,98.51
2022-10-03T11:04:26.254Z,97.0
2022-10-03T11:09:57.859Z,91.98
2022-10-03T11:15:29.559Z,91.52
2022-10-03T11:21:01.334Z,92.44
2022-10-03T11:26:33.042Z,93.04
2022-10-03T11:32:09.157Z,88.56
2022-10-03T11:37:40.841Z,88.47
2022-10-03T11:43:12.626Z,91.37
2022-10-03T11:48:44.389Z,89.14
2022-10-03T11:54:32.100Z,88.79
2022-10-03T11:59:47.782Z,89.61
2022-10-03T12:05:19.589Z,88.92
2022-10-03T12:10:51.398Z,88.4
2022-10-03T12:16:23.114Z,89.8
2022-10-03T12:21:54.637Z,92.31
2022-10-03T12:27:26.392Z,90.23
2022-10-03T12:33:04.522Z,91.16
2022-10-03T12:38:36.230Z,89.98
2022-10-03T12:44:07.977Z,90.76
2022-10-03T12:49:39.790Z,91.62
2022-10-03T12:55:11.450Z,90.75
2022-10-03T13:00:46.381Z,89.01
2022-10-03T13:06:14.870Z,85.08
2022-10-03T13:11:46.689Z,81.07
2022-10-03T13:17:18.329Z,80.73
2022-10-03T13:22:49.994Z,80.56
2022-10-03T13:28:22.003Z,79.45
2022-10-03T13:33:57.884Z,80.53
2022-10-03T13:39:29.605Z,79.11
2022-10-03T13:45:01.246Z,78.12
2022-10-03T13:50:33.083Z,81.0
2022-10-03T13:56:05.068Z,78.42
2022-10-03T14:01:36.681Z,83.2
2022-10-03T14:07:08.225Z,85.97
2022-10-03T14:12:56.220Z,79.93
2022-10-03T14:18:11.681Z,79.76
2022-10-03T14:23:43.662Z,81.46
2022-10-03T14:29:15.121Z,80.56
2022-10-03T14:34:53.260Z,78.08
2022-10-03T14:40:24.994Z,78.35
2022-10-03T14:45:56.792Z,77.78
2022-10-03T14:51:28.446Z,77.74
2022-10-03T14:57:00.155Z,77.71
2022-10-03T15:02:32.001Z,74.97
2022-10-03T15:08:03.674Z,79.19
2022-10-03T15:13:35.406Z,77.45
2022-10-03T15:19:07.802Z,77.67
2022-10-03T15:24:38.806Z,77.51
2022-10-03T15:30:10.522Z,78.97
2022-10-03T15:35:46.619Z,75.75
2022-10-03T15:41:18.456Z,74.88
2022-10-03T15:46:50.131Z,79.12
2022-10-03T15:52:22.067Z,79.57
2022-10-03T15:57:53.638Z,77.83
2022-10-03T16:03:25.337Z,82.74
2022-10-03T16:08:57.085Z,83.61
2022-10-03T16:14:28.766Z,85.62
2022-10-03T16:20:00.534Z,85.39
2022-10-03T16:25:32.229Z,86.09
2022-10-03T16:31:04.071Z,86.8
2022-10-03T16:36:40.102Z,88.79
2022-10-03T16:42:11.810Z,88.06
2022-10-03T16:47:43.498Z,89.34
2022-10-03T16:53:15.266Z,89.11
2022-10-03T16:58:46.994Z,89.75
2022-10-03T17:04:18.715Z,89.43
2022-10-03T17:09:50.456Z,89.87
2022-10-03T17:15:22.198Z,89.95
2022-10-03T17:20:53.905Z,89.19
2022-10-03T17:26:25.574Z,90.1
2022-10-03T17:31:57.465Z,90.12
2022-10-03T17:37:35.466Z,89.7
2022-10-03T17:43:07.250Z,89.75
2022-10-03T17:48:39.080Z,89.9
2022-10-03T17:54:10.596Z,90.09
2022-10-03T17:59:43.014Z,90.62
2022-10-03T18:05:14.021Z,90.82
2022-10-03T18:10:45.874Z,91.2
2022-10-03T18:16:17.621Z,91.56
2022-10-03T18:21:49.234Z,91.47
2022-10-03T18:27:20.925Z,91.84
2022-10-03T18:32:52.683Z,91.98
2022-10-03T18:38:30.761Z,92.0
2022-10-03T18:44:02.608Z,92.35
2022-10-03T18:49:36.121Z,92.79
2022-10-03T18:55:13.254Z,92.74
2022-10-03T19:00:42.934Z,93.29
2022-10-03T19:06:09.469Z,93.36
2022-10-03T19:11:41.824Z,93.42
2022-10-03T19:17:12.908Z,93.79
2022-10-03T19:22:44.629Z,93.82
2022-10-03T19:28:16.419Z,94.02
2022-10-03T19:33:48.149Z,93.96
2022-10-03T19:39:26.220Z,93.87
2022-10-03T19:44:57.940Z,94.01
2022-10-03T19:50:29.624Z,94.58
2022-10-03T19:56:01.449Z,94.34
2022-10-03T20:01:33.193Z,94.59
2022-10-03T20:07:04.831Z,95.1
2022-10-03T20:12:43.703Z,94.94
2022-10-03T20:18:08.305Z,95.12
2022-10-03T20:23:39.998Z,95.63
2022-10-03T20:29:11.744Z,96.26
2022-10-03T20:34:43.445Z,96.0
2022-10-03T20:40:19.533Z,96.1
2022-10-03T20:45:51.408Z,96.17
2022-10-03T20:51:23.165Z,96.22
2022-10-03T20:56:54.729Z,95.72
2022-10-03T21:02:26.581Z,95.99
2022-10-03T21:07:58.158Z,95.66
2022-10-03T21:13:29.890Z,96.35
2022-10-03T21:19:01.628Z,95.68
2022-10-03T21:24:33.320Z,96.33
2022-10-03T21:30:05.346Z,96.76
2022-10-03T21:35:36.776Z,96.98
2022-10-03T21:41:12.938Z,97.56
2022-10-03T21:46:44.648Z,97.21
2022-10-03T21:52:16.381Z,97.37
2022-10-03T21:57:48.085Z,97.54
2022-10-03T22:03:19.865Z,97.36
2022-10-03T22:08:51.573Z,97.13
2022-10-03T22:14:23.353Z,96.99
2022-10-03T22:19:55.085Z,96.64
2022-10-03T22:25:26.981Z,97.12
2022-10-03T22:30:58.591Z,97.36
2022-10-03T22:36:30.169Z,96.93
2022-10-03T22:42:06.315Z,97.25
2022-10-03T22:47:38.114Z,97.42
2022-10-03T22:53:09.774Z,96.84
2022-10-03T22:58:41.485Z,96.72
2022-10-03T23:04:13.306Z,98.22
2022-10-03T23:09:44.942Z,98.76
2022-10-03T23:15:16.641Z,98.44
2022-10-03T23:20:48.384Z,98.38
2022-10-03T23:26:20.109Z,97.91
2022-10-03T23:31:51.829Z,98.34
2022-10-03T23:37:23.524Z,97.84
2022-10-03T23:43:01.613Z,97.83
2022-10-03T23:48:33.396Z,97.53
2022-10-03T23:54:05.113Z,97.69
2022-10-03T23:59:36.803Z,98.28
